Terminal Aerodrome Forecast
Issued by NWS

Home | Current Version | Previous Version | Text Only | Print | Product List | Glossary On
Versions: 1 2 3 4 5 6 7 8 9 10 11 12 13 14 15
000
FTUS42 KTAE 011700
TAFABY
TAF
KABY 011720Z 0118/0218 05005KT P6SM VCSH SCT020
     FM012000 05005KT P6SM -SHRA SCT030 SCT250
     FM020000 00000KT P6SM BKN250=

USA.gov is the U.S. government's official web portal to all federal, state and local government web resources and services.